sensor_id;sensor_type;location;lat;lon;timestamp;P1;durP1;ratioP1;P2;durP2;ratioP2
39620;SDS011;25309;48.686;9.170;2022-08-19T00:01:23;13.90;;;12.40;;
39620;SDS011;25309;48.686;9.170;2022-08-19T00:03:55;13.77;;;12.37;;
39620;SDS011;25309;48.686;9.170;2022-08-19T00:06:23;14.93;;;12.70;;
39620;SDS011;25309;48.686;9.170;2022-08-19T00:08:50;14.03;;;12.60;;
39620;SDS011;25309;48.686;9.170;2022-08-19T00:11:17;14.03;;;12.33;;
39620;SDS011;25309;48.686;9.170;2022-08-19T00:13:51;14.13;;;12.63;;
39620;SDS011;25309;48.686;9.170;2022-08-19T00:16:18;12.80;;;11.50;;
39620;SDS011;25309;48.686;9.170;2022-08-19T00:18:53;14.80;;;12.63;;
39620;SDS011;25309;48.686;9.170;2022-08-19T00:21:22;14.83;;;12.87;;
39620;SDS011;25309;48.686;9.170;2022-08-19T00:23:50;14.03;;;11.90;;
39620;SDS011;25309;48.686;9.170;2022-08-19T00:26:18;15.33;;;13.23;;
39620;SDS011;25309;48.686;9.170;2022-08-19T00:28:45;15.80;;;13.33;;
39620;SDS011;25309;48.686;9.170;2022-08-19T00:31:13;14.33;;;12.83;;
39620;SDS011;25309;48.686;9.170;2022-08-19T00:33:40;14.67;;;12.97;;
39620;SDS011;25309;48.686;9.170;2022-08-19T00:36:08;16.00;;;13.20;;
39620;SDS011;25309;48.686;9.170;2022-08-19T00:38:37;13.27;;;11.87;;
39620;SDS011;25309;48.686;9.170;2022-08-19T00:41:09;14.47;;;12.93;;
39620;SDS011;25309;48.686;9.170;2022-08-19T00:43:38;14.40;;;12.50;;
39620;SDS011;25309;48.686;9.170;2022-08-19T00:46:07;15.17;;;12.40;;
39620;SDS011;25309;48.686;9.170;2022-08-19T00:48:34;13.93;;;12.20;;
39620;SDS011;25309;48.686;9.170;2022-08-19T00:51:02;14.73;;;13.07;;
39620;SDS011;25309;48.686;9.170;2022-08-19T00:53:32;14.60;;;13.03;;
39620;SDS011;25309;48.686;9.170;2022-08-19T00:56:00;13.80;;;12.30;;
39620;SDS011;25309;48.686;9.170;2022-08-19T00:58:30;15.47;;;12.87;;
39620;SDS011;25309;48.686;9.170;2022-08-19T01:00:59;15.73;;;13.87;;
39620;SDS011;25309;48.686;9.170;2022-08-19T01:03:27;15.30;;;13.53;;
39620;SDS011;25309;48.686;9.170;2022-08-19T01:06:14;14.33;;;12.83;;
39620;SDS011;25309;48.686;9.170;2022-08-19T01:08:47;15.67;;;13.33;;
39620;SDS011;25309;48.686;9.170;2022-08-19T01:14:54;15.73;;;13.47;;
39620;SDS011;25309;48.686;9.170;2022-08-19T01:17:24;15.83;;;13.13;;
39620;SDS011;25309;48.686;9.170;2022-08-19T01:19:51;14.97;;;13.37;;
39620;SDS011;25309;48.686;9.170;2022-08-19T01:22:19;14.53;;;13.03;;
39620;SDS011;25309;48.686;9.170;2022-08-19T01:24:59;14.63;;;12.50;;
39620;SDS011;25309;48.686;9.170;2022-08-19T01:27:26;15.27;;;13.67;;
39620;SDS011;25309;48.686;9.170;2022-08-19T01:30:09;15.23;;;13.67;;
39620;SDS011;25309;48.686;9.170;2022-08-19T01:32:39;15.47;;;13.87;;
39620;SDS011;25309;48.686;9.170;2022-08-19T01:35:06;15.83;;;14.13;;
39620;SDS011;25309;48.686;9.170;2022-08-19T01:37:42;16.27;;;14.43;;
39620;SDS011;25309;48.686;9.170;2022-08-19T01:40:15;15.87;;;13.67;;
39620;SDS011;25309;48.686;9.170;2022-08-19T01:42:42;17.17;;;14.57;;
39620;SDS011;25309;48.686;9.170;2022-08-19T01:45:09;15.90;;;14.20;;
39620;SDS011;25309;48.686;9.170;2022-08-19T01:47:36;16.47;;;14.10;;
39620;SDS011;25309;48.686;9.170;2022-08-19T01:50:04;16.50;;;14.10;;
39620;SDS011;25309;48.686;9.170;2022-08-19T01:52:35;14.63;;;13.13;;
39620;SDS011;25309;48.686;9.170;2022-08-19T01:55:05;15.03;;;13.43;;
39620;SDS011;25309;48.686;9.170;2022-08-19T01:57:35;15.93;;;14.17;;
39620;SDS011;25309;48.686;9.170;2022-08-19T02:00:03;16.10;;;14.40;;
39620;SDS011;25309;48.686;9.170;2022-08-19T02:02:36;16.10;;;14.40;;
39620;SDS011;25309;48.686;9.170;2022-08-19T02:05:04;15.63;;;13.93;;
39620;SDS011;25309;48.686;9.170;2022-08-19T02:07:36;17.77;;;14.40;;
39620;SDS011;25309;48.686;9.170;2022-08-19T02:10:10;16.43;;;14.13;;
39620;SDS011;25309;48.686;9.170;2022-08-19T02:12:42;16.67;;;14.43;;
39620;SDS011;25309;48.686;9.170;2022-08-19T02:15:09;17.47;;;14.90;;
39620;SDS011;25309;48.686;9.170;2022-08-19T02:17:36;16.27;;;13.47;;
39620;SDS011;25309;48.686;9.170;2022-08-19T02:20:04;16.37;;;14.57;;
39620;SDS011;25309;48.686;9.170;2022-08-19T02:22:33;16.67;;;14.20;;
39620;SDS011;25309;48.686;9.170;2022-08-19T02:24:59;16.90;;;14.70;;
39620;SDS011;25309;48.686;9.170;2022-08-19T02:27:28;16.03;;;14.33;;
39620;SDS011;25309;48.686;9.170;2022-08-19T02:29:55;16.13;;;14.10;;
39620;SDS011;25309;48.686;9.170;2022-08-19T02:32:22;17.47;;;14.73;;
39620;SDS011;25309;48.686;9.170;2022-08-19T02:34:49;18.83;;;15.23;;
39620;SDS011;25309;48.686;9.170;2022-08-19T02:37:16;18.20;;;14.80;;
39620;SDS011;25309;48.686;9.170;2022-08-19T02:40:12;17.93;;;15.73;;
39620;SDS011;25309;48.686;9.170;2022-08-19T02:42:41;18.57;;;16.03;;
39620;SDS011;25309;48.686;9.170;2022-08-19T02:45:09;16.07;;;14.33;;
39620;SDS011;25309;48.686;9.170;2022-08-19T02:47:36;17.67;;;15.47;;
39620;SDS011;25309;48.686;9.170;2022-08-19T02:50:03;18.93;;;15.53;;
39620;SDS011;25309;48.686;9.170;2022-08-19T02:52:31;19.27;;;15.60;;
39620;SDS011;25309;48.686;9.170;2022-08-19T02:54:59;18.87;;;16.03;;
39620;SDS011;25309;48.686;9.170;2022-08-19T02:57:27;19.13;;;16.30;;
39620;SDS011;25309;48.686;9.170;2022-08-19T02:59:58;17.80;;;15.90;;
39620;SDS011;25309;48.686;9.170;2022-08-19T03:02:26;17.93;;;15.33;;
39620;SDS011;25309;48.686;9.170;2022-08-19T03:04:53;18.73;;;15.90;;
39620;SDS011;25309;48.686;9.170;2022-08-19T03:07:20;22.97;;;17.53;;
39620;SDS011;25309;48.686;9.170;2022-08-19T03:09:47;20.50;;;16.60;;
39620;SDS011;25309;48.686;9.170;2022-08-19T03:12:14;18.17;;;15.40;;
39620;SDS011;25309;48.686;9.170;2022-08-19T03:14:41;20.07;;;17.80;;
39620;SDS011;25309;48.686;9.170;2022-08-19T03:17:09;18.17;;;15.53;;
39620;SDS011;25309;48.686;9.170;2022-08-19T03:19:36;20.10;;;16.97;;
39620;SDS011;25309;48.686;9.170;2022-08-19T03:22:04;19.10;;;16.07;;
39620;SDS011;25309;48.686;9.170;2022-08-19T03:24:31;22.40;;;17.73;;
39620;SDS011;25309;48.686;9.170;2022-08-19T03:26:58;20.20;;;16.37;;
39620;SDS011;25309;48.686;9.170;2022-08-19T03:29:25;19.23;;;15.87;;
39620;SDS011;25309;48.686;9.170;2022-08-19T03:31:56;20.70;;;16.93;;
39620;SDS011;25309;48.686;9.170;2022-08-19T03:34:25;20.93;;;17.60;;
39620;SDS011;25309;48.686;9.170;2022-08-19T03:36:55;18.77;;;16.00;;
39620;SDS011;25309;48.686;9.170;2022-08-19T03:39:24;22.27;;;18.40;;
39620;SDS011;25309;48.686;9.170;2022-08-19T03:41:52;19.77;;;17.50;;
39620;SDS011;25309;48.686;9.170;2022-08-19T03:44:43;20.90;;;16.70;;
39620;SDS011;25309;48.686;9.170;2022-08-19T03:47:11;19.83;;;16.90;;
39620;SDS011;25309;48.686;9.170;2022-08-19T03:49:44;20.87;;;17.37;;
39620;SDS011;25309;48.686;9.170;2022-08-19T03:52:11;19.73;;;17.63;;
39620;SDS011;25309;48.686;9.170;2022-08-19T03:54:38;21.93;;;17.80;;
39620;SDS011;25309;48.686;9.170;2022-08-19T03:57:05;19.57;;;16.97;;
39620;SDS011;25309;48.686;9.170;2022-08-19T03:59:33;19.90;;;17.43;;
39620;SDS011;25309;48.686;9.170;2022-08-19T04:02:03;19.83;;;17.27;;
39620;SDS011;25309;48.686;9.170;2022-08-19T04:04:35;20.70;;;18.10;;
39620;SDS011;25309;48.686;9.170;2022-08-19T04:07:05;19.60;;;17.43;;
39620;SDS011;25309;48.686;9.170;2022-08-19T04:09:33;20.53;;;17.50;;
39620;SDS011;25309;48.686;9.170;2022-08-19T04:12:00;21.83;;;18.37;;
39620;SDS011;25309;48.686;9.170;2022-08-19T04:14:28;20.77;;;18.43;;
39620;SDS011;25309;48.686;9.170;2022-08-19T04:17:00;20.47;;;17.27;;
39620;SDS011;25309;48.686;9.170;2022-08-19T04:19:31;19.67;;;17.50;;
39620;SDS011;25309;48.686;9.170;2022-08-19T04:21:58;22.50;;;18.07;;
39620;SDS011;25309;48.686;9.170;2022-08-19T04:24:27;21.37;;;17.40;;
39620;SDS011;25309;48.686;9.170;2022-08-19T04:26:54;20.43;;;18.23;;
39620;SDS011;25309;48.686;9.170;2022-08-19T04:29:23;17.23;;;15.40;;
39620;SDS011;25309;48.686;9.170;2022-08-19T04:31:52;17.03;;;15.23;;
39620;SDS011;25309;48.686;9.170;2022-08-19T04:34:20;19.60;;;16.67;;
39620;SDS011;25309;48.686;9.170;2022-08-19T04:36:49;21.30;;;17.87;;
39620;SDS011;25309;48.686;9.170;2022-08-19T04:39:20;23.00;;;17.73;;
39620;SDS011;25309;48.686;9.170;2022-08-19T04:42:12;20.53;;;18.17;;
39620;SDS011;25309;48.686;9.170;2022-08-19T04:44:58;18.73;;;16.10;;
39620;SDS011;25309;48.686;9.170;2022-08-19T04:47:26;20.40;;;17.73;;
39620;SDS011;25309;48.686;9.170;2022-08-19T04:50:14;24.13;;;19.40;;
39620;SDS011;25309;48.686;9.170;2022-08-19T04:52:44;21.67;;;18.47;;
39620;SDS011;25309;48.686;9.170;2022-08-19T04:55:11;20.00;;;17.50;;
39620;SDS011;25309;48.686;9.170;2022-08-19T04:57:41;16.93;;;14.50;;
39620;SDS011;25309;48.686;9.170;2022-08-19T05:00:08;15.80;;;13.80;;
39620;SDS011;25309;48.686;9.170;2022-08-19T05:02:36;19.90;;;16.17;;
39620;SDS011;25309;48.686;9.170;2022-08-19T05:05:03;16.37;;;14.60;;
39620;SDS011;25309;48.686;9.170;2022-08-19T05:07:32;23.70;;;19.60;;
39620;SDS011;25309;48.686;9.170;2022-08-19T05:09:59;18.47;;;14.87;;
39620;SDS011;25309;48.686;9.170;2022-08-19T05:12:27;15.53;;;13.83;;
39620;SDS011;25309;48.686;9.170;2022-08-19T05:14:56;21.93;;;17.40;;
39620;SDS011;25309;48.686;9.170;2022-08-19T05:17:24;17.10;;;15.27;;
39620;SDS011;25309;48.686;9.170;2022-08-19T05:19:54;17.87;;;15.53;;
39620;SDS011;25309;48.686;9.170;2022-08-19T05:22:40;17.47;;;14.73;;
39620;SDS011;25309;48.686;9.170;2022-08-19T05:25:09;23.67;;;19.80;;
39620;SDS011;25309;48.686;9.170;2022-08-19T05:27:39;18.87;;;16.83;;
39620;SDS011;25309;48.686;9.170;2022-08-19T05:30:09;17.13;;;14.77;;
39620;SDS011;25309;48.686;9.170;2022-08-19T05:32:38;15.47;;;13.87;;
39620;SDS011;25309;48.686;9.170;2022-08-19T05:35:05;19.97;;;17.33;;
39620;SDS011;25309;48.686;9.170;2022-08-19T05:37:33;16.17;;;14.47;;
39620;SDS011;25309;48.686;9.170;2022-08-19T05:40:00;25.37;;;18.37;;
39620;SDS011;25309;48.686;9.170;2022-08-19T05:42:27;20.27;;;16.13;;
39620;SDS011;25309;48.686;9.170;2022-08-19T05:44:54;26.73;;;18.10;;
39620;SDS011;25309;48.686;9.170;2022-08-19T05:47:24;17.53;;;14.80;;
39620;SDS011;25309;48.686;9.170;2022-08-19T05:49:51;19.43;;;17.40;;
39620;SDS011;25309;48.686;9.170;2022-08-19T05:52:18;18.23;;;16.07;;
39620;SDS011;25309;48.686;9.170;2022-08-19T05:54:51;20.63;;;18.27;;
39620;SDS011;25309;48.686;9.170;2022-08-19T05:57:22;14.43;;;12.93;;
39620;SDS011;25309;48.686;9.170;2022-08-19T05:59:50;15.23;;;13.37;;
39620;SDS011;25309;48.686;9.170;2022-08-19T06:02:25;17.77;;;15.87;;
39620;SDS011;25309;48.686;9.170;2022-08-19T06:04:52;20.43;;;18.23;;
39620;SDS011;25309;48.686;9.170;2022-08-19T06:07:19;16.87;;;14.13;;
39620;SDS011;25309;48.686;9.170;2022-08-19T06:09:46;18.00;;;15.50;;
39620;SDS011;25309;48.686;9.170;2022-08-19T06:12:25;17.77;;;15.73;;
39620;SDS011;25309;48.686;9.170;2022-08-19T06:14:55;15.53;;;13.93;;
39620;SDS011;25309;48.686;9.170;2022-08-19T06:17:28;20.03;;;17.03;;
39620;SDS011;25309;48.686;9.170;2022-08-19T06:19:57;19.50;;;16.77;;
39620;SDS011;25309;48.686;9.170;2022-08-19T06:22:25;20.80;;;17.67;;
39620;SDS011;25309;48.686;9.170;2022-08-19T06:24:52;20.70;;;18.03;;
39620;SDS011;25309;48.686;9.170;2022-08-19T06:27:20;15.23;;;13.50;;
39620;SDS011;25309;48.686;9.170;2022-08-19T06:29:47;17.43;;;14.77;;
39620;SDS011;25309;48.686;9.170;2022-08-19T06:32:15;14.50;;;13.00;;
39620;SDS011;25309;48.686;9.170;2022-08-19T06:34:45;17.57;;;15.73;;
39620;SDS011;25309;48.686;9.170;2022-08-19T06:37:13;16.73;;;14.97;;
39620;SDS011;25309;48.686;9.170;2022-08-19T06:39:41;17.17;;;15.37;;
39620;SDS011;25309;48.686;9.170;2022-08-19T06:42:11;21.40;;;18.00;;
39620;SDS011;25309;48.686;9.170;2022-08-19T06:44:44;19.47;;;16.00;;
39620;SDS011;25309;48.686;9.170;2022-08-19T06:47:16;18.37;;;16.37;;
39620;SDS011;25309;48.686;9.170;2022-08-19T06:49:55;23.07;;;18.87;;
39620;SDS011;25309;48.686;9.170;2022-08-19T06:52:28;16.13;;;14.43;;
39620;SDS011;25309;48.686;9.170;2022-08-19T06:54:59;19.57;;;16.83;;
39620;SDS011;25309;48.686;9.170;2022-08-19T06:57:26;21.10;;;18.20;;
39620;SDS011;25309;48.686;9.170;2022-08-19T06:59:54;20.70;;;18.47;;
39620;SDS011;25309;48.686;9.170;2022-08-19T07:02:22;17.67;;;15.80;;
39620;SDS011;25309;48.686;9.170;2022-08-19T07:04:52;16.37;;;14.67;;
39620;SDS011;25309;48.686;9.170;2022-08-19T07:07:21;18.63;;;15.77;;
39620;SDS011;25309;48.686;9.170;2022-08-19T07:09:49;20.10;;;17.47;;
39620;SDS011;25309;48.686;9.170;2022-08-19T07:12:26;22.10;;;18.93;;
39620;SDS011;25309;48.686;9.170;2022-08-19T07:14:56;21.33;;;19.03;;
39620;SDS011;25309;48.686;9.170;2022-08-19T07:17:23;22.73;;;19.53;;
39620;SDS011;25309;48.686;9.170;2022-08-19T07:19:51;21.00;;;18.70;;
39620;SDS011;25309;48.686;9.170;2022-08-19T07:22:20;15.83;;;14.13;;
39620;SDS011;25309;48.686;9.170;2022-08-19T07:24:49;16.63;;;14.43;;
39620;SDS011;25309;48.686;9.170;2022-08-19T07:27:17;19.83;;;17.73;;
39620;SDS011;25309;48.686;9.170;2022-08-19T07:29:50;16.73;;;14.23;;
39620;SDS011;25309;48.686;9.170;2022-08-19T07:32:22;14.97;;;12.63;;
39620;SDS011;25309;48.686;9.170;2022-08-19T07:34:50;19.00;;;16.83;;
39620;SDS011;25309;48.686;9.170;2022-08-19T07:37:18;16.70;;;14.97;;
39620;SDS011;25309;48.686;9.170;2022-08-19T07:39:47;20.77;;;16.57;;
39620;SDS011;25309;48.686;9.170;2022-08-19T07:42:14;18.93;;;16.67;;
39620;SDS011;25309;48.686;9.170;2022-08-19T07:44:41;18.07;;;15.37;;
39620;SDS011;25309;48.686;9.170;2022-08-19T07:47:16;21.23;;;18.00;;
39620;SDS011;25309;48.686;9.170;2022-08-19T07:50:04;17.00;;;14.73;;
39620;SDS011;25309;48.686;9.170;2022-08-19T07:52:33;19.73;;;16.60;;
39620;SDS011;25309;48.686;9.170;2022-08-19T07:55:04;15.47;;;13.87;;
39620;SDS011;25309;48.686;9.170;2022-08-19T07:57:52;17.67;;;15.77;;
39620;SDS011;25309;48.686;9.170;2022-08-19T08:00:19;18.80;;;15.87;;
39620;SDS011;25309;48.686;9.170;2022-08-19T08:02:50;16.17;;;14.57;;
39620;SDS011;25309;48.686;9.170;2022-08-19T08:05:18;15.37;;;13.77;;
39620;SDS011;25309;48.686;9.170;2022-08-19T08:08:08;16.60;;;14.87;;
39620;SDS011;25309;48.686;9.170;2022-08-19T08:10:55;22.77;;;17.53;;
39620;SDS011;25309;48.686;9.170;2022-08-19T08:13:23;20.53;;;17.73;;
39620;SDS011;25309;48.686;9.170;2022-08-19T08:15:50;18.50;;;14.60;;
39620;SDS011;25309;48.686;9.170;2022-08-19T08:18:20;17.43;;;15.63;;
39620;SDS011;25309;48.686;9.170;2022-08-19T08:20:53;15.97;;;14.20;;
39620;SDS011;25309;48.686;9.170;2022-08-19T08:23:20;18.30;;;15.20;;
39620;SDS011;25309;48.686;9.170;2022-08-19T08:25:52;21.70;;;17.73;;
39620;SDS011;25309;48.686;9.170;2022-08-19T08:28:24;18.33;;;16.27;;
39620;SDS011;25309;48.686;9.170;2022-08-19T08:30:55;18.20;;;15.50;;
39620;SDS011;25309;48.686;9.170;2022-08-19T08:33:24;20.07;;;17.47;;
39620;SDS011;25309;48.686;9.170;2022-08-19T08:35:59;21.80;;;18.67;;
39620;SDS011;25309;48.686;9.170;2022-08-19T08:38:30;18.73;;;16.73;;
39620;SDS011;25309;48.686;9.170;2022-08-19T08:41:06;13.57;;;12.10;;
39620;SDS011;25309;48.686;9.170;2022-08-19T08:43:44;19.83;;;17.03;;
39620;SDS011;25309;48.686;9.170;2022-08-19T08:46:13;18.53;;;16.03;;
39620;SDS011;25309;48.686;9.170;2022-08-19T08:48:59;17.93;;;16.03;;
39620;SDS011;25309;48.686;9.170;2022-08-19T08:51:34;16.27;;;14.10;;
39620;SDS011;25309;48.686;9.170;2022-08-19T08:54:11;21.37;;;17.40;;
39620;SDS011;25309;48.686;9.170;2022-08-19T08:56:40;15.30;;;13.70;;
39620;SDS011;25309;48.686;9.170;2022-08-19T08:59:12;20.47;;;17.23;;
39620;SDS011;25309;48.686;9.170;2022-08-19T09:01:45;20.77;;;16.67;;
39620;SDS011;25309;48.686;9.170;2022-08-19T09:04:12;15.83;;;14.23;;
39620;SDS011;25309;48.686;9.170;2022-08-19T09:06:40;15.40;;;12.27;;
39620;SDS011;25309;48.686;9.170;2022-08-19T09:09:16;12.73;;;10.73;;
39620;SDS011;25309;48.686;9.170;2022-08-19T09:11:50;17.13;;;15.37;;
39620;SDS011;25309;48.686;9.170;2022-08-19T09:17:18;20.83;;;18.33;;
39620;SDS011;25309;48.686;9.170;2022-08-19T09:19:51;21.53;;;18.37;;
39620;SDS011;25309;48.686;9.170;2022-08-19T09:22:19;20.37;;;17.77;;
39620;SDS011;25309;48.686;9.170;2022-08-19T09:24:52;20.60;;;18.17;;
39620;SDS011;25309;48.686;9.170;2022-08-19T09:27:19;20.37;;;17.53;;
39620;SDS011;25309;48.686;9.170;2022-08-19T09:30:11;14.30;;;12.80;;
39620;SDS011;25309;48.686;9.170;2022-08-19T09:32:41;17.87;;;15.30;;
39620;SDS011;25309;48.686;9.170;2022-08-19T09:35:09;15.00;;;13.43;;
39620;SDS011;25309;48.686;9.170;2022-08-19T09:37:37;20.13;;;17.60;;
39620;SDS011;25309;48.686;9.170;2022-08-19T09:40:06;21.83;;;17.20;;
39620;SDS011;25309;48.686;9.170;2022-08-19T09:42:37;20.23;;;18.13;;
39620;SDS011;25309;48.686;9.170;2022-08-19T09:45:18;16.93;;;14.03;;
39620;SDS011;25309;48.686;9.170;2022-08-19T09:47:47;17.30;;;15.50;;
39620;SDS011;25309;48.686;9.170;2022-08-19T09:50:19;19.70;;;17.60;;
39620;SDS011;25309;48.686;9.170;2022-08-19T09:52:48;14.10;;;12.63;;
39620;SDS011;25309;48.686;9.170;2022-08-19T09:55:23;18.23;;;15.60;;
39620;SDS011;25309;48.686;9.170;2022-08-19T09:57:58;19.00;;;16.93;;
39620;SDS011;25309;48.686;9.170;2022-08-19T10:00:27;19.57;;;17.57;;
39620;SDS011;25309;48.686;9.170;2022-08-19T10:02:55;15.27;;;13.13;;
39620;SDS011;25309;48.686;9.170;2022-08-19T10:05:22;15.97;;;13.77;;
39620;SDS011;25309;48.686;9.170;2022-08-19T10:08:08;18.07;;;16.17;;
39620;SDS011;25309;48.686;9.170;2022-08-19T10:10:39;20.70;;;17.77;;
39620;SDS011;25309;48.686;9.170;2022-08-19T10:13:11;14.90;;;13.13;;
39620;SDS011;25309;48.686;9.170;2022-08-19T10:15:40;19.20;;;17.20;;
39620;SDS011;25309;48.686;9.170;2022-08-19T10:18:13;17.27;;;15.40;;
39620;SDS011;25309;48.686;9.170;2022-08-19T10:20:42;18.97;;;16.97;;
39620;SDS011;25309;48.686;9.170;2022-08-19T10:23:17;18.90;;;16.97;;
39620;SDS011;25309;48.686;9.170;2022-08-19T10:25:46;17.93;;;16.03;;
39620;SDS011;25309;48.686;9.170;2022-08-19T10:28:14;19.97;;;16.97;;
39620;SDS011;25309;48.686;9.170;2022-08-19T10:30:46;17.50;;;15.70;;
39620;SDS011;25309;48.686;9.170;2022-08-19T10:33:13;18.93;;;17.00;;
39620;SDS011;25309;48.686;9.170;2022-08-19T10:36:01;19.43;;;17.27;;
39620;SDS011;25309;48.686;9.170;2022-08-19T10:38:30;18.63;;;16.40;;
39620;SDS011;25309;48.686;9.170;2022-08-19T10:40:58;19.23;;;16.43;;
39620;SDS011;25309;48.686;9.170;2022-08-19T10:43:33;19.23;;;16.63;;
39620;SDS011;25309;48.686;9.170;2022-08-19T10:46:05;18.40;;;16.50;;
39620;SDS011;25309;48.686;9.170;2022-08-19T10:48:39;17.93;;;15.93;;
39620;SDS011;25309;48.686;9.170;2022-08-19T10:51:07;17.83;;;15.93;;
39620;SDS011;25309;48.686;9.170;2022-08-19T10:53:53;19.40;;;16.93;;
39620;SDS011;25309;48.686;9.170;2022-08-19T10:56:21;17.50;;;15.60;;
39620;SDS011;25309;48.686;9.170;2022-08-19T10:59:08;17.43;;;14.80;;
39620;SDS011;25309;48.686;9.170;2022-08-19T11:01:37;17.03;;;15.27;;
39620;SDS011;25309;48.686;9.170;2022-08-19T11:04:04;17.27;;;14.37;;
39620;SDS011;25309;48.686;9.170;2022-08-19T11:06:34;17.70;;;14.97;;
39620;SDS011;25309;48.686;9.170;2022-08-19T11:09:02;15.23;;;13.63;;
39620;SDS011;25309;48.686;9.170;2022-08-19T11:11:29;15.17;;;12.87;;
39620;SDS011;25309;48.686;9.170;2022-08-19T11:13:56;14.37;;;12.87;;
39620;SDS011;25309;48.686;9.170;2022-08-19T11:16:24;15.60;;;13.70;;
39620;SDS011;25309;48.686;9.170;2022-08-19T11:18:58;13.03;;;11.73;;
39620;SDS011;25309;48.686;9.170;2022-08-19T11:21:26;14.60;;;12.70;;
39620;SDS011;25309;48.686;9.170;2022-08-19T11:23:58;11.07;;;9.97;;
39620;SDS011;25309;48.686;9.170;2022-08-19T11:26:27;16.00;;;13.07;;
39620;SDS011;25309;48.686;9.170;2022-08-19T11:28:54;14.73;;;12.97;;
39620;SDS011;25309;48.686;9.170;2022-08-19T11:31:23;16.20;;;13.53;;
39620;SDS011;25309;48.686;9.170;2022-08-19T11:33:55;16.10;;;13.20;;
39620;SDS011;25309;48.686;9.170;2022-08-19T11:36:24;15.63;;;13.87;;
39620;SDS011;25309;48.686;9.170;2022-08-19T11:38:51;15.43;;;13.70;;
39620;SDS011;25309;48.686;9.170;2022-08-19T11:41:19;15.17;;;13.60;;
39620;SDS011;25309;48.686;9.170;2022-08-19T11:43:49;15.53;;;13.83;;
39620;SDS011;25309;48.686;9.170;2022-08-19T11:46:16;15.37;;;13.77;;
39620;SDS011;25309;48.686;9.170;2022-08-19T11:48:44;16.47;;;14.10;;
39620;SDS011;25309;48.686;9.170;2022-08-19T11:51:12;15.90;;;14.20;;
39620;SDS011;25309;48.686;9.170;2022-08-19T11:53:42;15.77;;;14.23;;
39620;SDS011;25309;48.686;9.170;2022-08-19T11:56:09;15.60;;;13.97;;
39620;SDS011;25309;48.686;9.170;2022-08-19T11:58:36;17.50;;;15.70;;
39620;SDS011;25309;48.686;9.170;2022-08-19T12:01:04;17.13;;;15.43;;
39620;SDS011;25309;48.686;9.170;2022-08-19T12:03:33;16.93;;;15.23;;
39620;SDS011;25309;48.686;9.170;2022-08-19T12:06:03;16.83;;;15.07;;
39620;SDS011;25309;48.686;9.170;2022-08-19T12:08:31;16.97;;;15.13;;
39620;SDS011;25309;48.686;9.170;2022-08-19T12:10:59;16.70;;;15.00;;
39620;SDS011;25309;48.686;9.170;2022-08-19T12:13:30;16.27;;;14.67;;
39620;SDS011;25309;48.686;9.170;2022-08-19T12:15:57;16.37;;;14.63;;
39620;SDS011;25309;48.686;9.170;2022-08-19T12:18:25;16.57;;;14.80;;
39620;SDS011;25309;48.686;9.170;2022-08-19T12:20:53;18.10;;;16.17;;
39620;SDS011;25309;48.686;9.170;2022-08-19T12:23:23;17.23;;;15.40;;
39620;SDS011;25309;48.686;9.170;2022-08-19T12:25:50;17.47;;;15.27;;
39620;SDS011;25309;48.686;9.170;2022-08-19T12:28:19;18.03;;;16.13;;
39620;SDS011;25309;48.686;9.170;2022-08-19T12:30:48;20.43;;;17.90;;
39620;SDS011;25309;48.686;9.170;2022-08-19T12:33:17;18.53;;;16.50;;
39620;SDS011;25309;48.686;9.170;2022-08-19T12:35:45;20.33;;;17.30;;
39620;SDS011;25309;48.686;9.170;2022-08-19T12:38:12;18.90;;;17.00;;
39620;SDS011;25309;48.686;9.170;2022-08-19T12:40:40;19.27;;;17.17;;
39620;SDS011;25309;48.686;9.170;2022-08-19T12:43:08;18.80;;;16.90;;
39620;SDS011;25309;48.686;9.170;2022-08-19T12:45:36;18.20;;;16.37;;
39620;SDS011;25309;48.686;9.170;2022-08-19T12:48:06;19.93;;;16.87;;
39620;SDS011;25309;48.686;9.170;2022-08-19T12:50:53;18.80;;;16.70;;
39620;SDS011;25309;48.686;9.170;2022-08-19T12:53:20;19.30;;;17.23;;
39620;SDS011;25309;48.686;9.170;2022-08-19T12:55:47;19.87;;;17.77;;
39620;SDS011;25309;48.686;9.170;2022-08-19T12:58:14;19.37;;;16.77;;
39620;SDS011;25309;48.686;9.170;2022-08-19T13:00:42;19.57;;;17.47;;
39620;SDS011;25309;48.686;9.170;2022-08-19T13:03:09;19.97;;;17.60;;
39620;SDS011;25309;48.686;9.170;2022-08-19T13:05:36;18.87;;;16.97;;
39620;SDS011;25309;48.686;9.170;2022-08-19T13:08:03;19.57;;;17.57;;
39620;SDS011;25309;48.686;9.170;2022-08-19T13:10:31;22.53;;;20.07;;
39620;SDS011;25309;48.686;9.170;2022-08-19T13:13:01;23.10;;;20.53;;
39620;SDS011;25309;48.686;9.170;2022-08-19T13:15:32;25.67;;;22.87;;
39620;SDS011;25309;48.686;9.170;2022-08-19T13:18:02;25.57;;;21.57;;
39620;SDS011;25309;48.686;9.170;2022-08-19T13:20:29;24.80;;;21.90;;
39620;SDS011;25309;48.686;9.170;2022-08-19T13:22:56;25.17;;;21.43;;
39620;SDS011;25309;48.686;9.170;2022-08-19T13:25:23;24.20;;;21.23;;
39620;SDS011;25309;48.686;9.170;2022-08-19T13:27:51;23.27;;;20.50;;
39620;SDS011;25309;48.686;9.170;2022-08-19T13:30:19;23.30;;;20.80;;
39620;SDS011;25309;48.686;9.170;2022-08-19T13:33:07;26.40;;;22.40;;
39620;SDS011;25309;48.686;9.170;2022-08-19T13:35:41;24.50;;;21.57;;
39620;SDS011;25309;48.686;9.170;2022-08-19T13:38:10;24.97;;;22.30;;
39620;SDS011;25309;48.686;9.170;2022-08-19T13:40:38;24.80;;;21.80;;
39620;SDS011;25309;48.686;9.170;2022-08-19T13:43:06;24.77;;;22.17;;
39620;SDS011;25309;48.686;9.170;2022-08-19T13:45:48;25.17;;;22.47;;
39620;SDS011;25309;48.686;9.170;2022-08-19T13:48:22;23.90;;;21.20;;
39620;SDS011;25309;48.686;9.170;2022-08-19T13:50:50;23.93;;;21.37;;
39620;SDS011;25309;48.686;9.170;2022-08-19T13:53:17;25.80;;;22.97;;
39620;SDS011;25309;48.686;9.170;2022-08-19T13:55:44;25.50;;;22.80;;
39620;SDS011;25309;48.686;9.170;2022-08-19T13:58:11;26.47;;;23.03;;
39620;SDS011;25309;48.686;9.170;2022-08-19T14:00:41;17.27;;;15.40;;
39620;SDS011;25309;48.686;9.170;2022-08-19T14:03:09;25.17;;;22.43;;
39620;SDS011;25309;48.686;9.170;2022-08-19T14:05:38;24.63;;;21.27;;
39620;SDS011;25309;48.686;9.170;2022-08-19T14:08:05;25.30;;;21.97;;
39620;SDS011;25309;48.686;9.170;2022-08-19T14:10:32;23.50;;;20.80;;
39620;SDS011;25309;48.686;9.170;2022-08-19T14:13:00;22.10;;;19.87;;
39620;SDS011;25309;48.686;9.170;2022-08-19T14:15:29;23.50;;;20.83;;
39620;SDS011;25309;48.686;9.170;2022-08-19T14:17:56;23.87;;;21.33;;
39620;SDS011;25309;48.686;9.170;2022-08-19T14:20:23;19.87;;;17.43;;
39620;SDS011;25309;48.686;9.170;2022-08-19T14:22:53;24.17;;;21.60;;
39620;SDS011;25309;48.686;9.170;2022-08-19T14:25:21;22.97;;;20.50;;
39620;SDS011;25309;48.686;9.170;2022-08-19T14:27:50;23.70;;;21.10;;
39620;SDS011;25309;48.686;9.170;2022-08-19T14:30:19;24.30;;;21.27;;
39620;SDS011;25309;48.686;9.170;2022-08-19T14:32:47;24.53;;;20.57;;
39620;SDS011;25309;48.686;9.170;2022-08-19T14:35:15;23.23;;;20.83;;
39620;SDS011;25309;48.686;9.170;2022-08-19T14:37:42;24.13;;;21.63;;
39620;SDS011;25309;48.686;9.170;2022-08-19T14:40:13;23.00;;;20.50;;
39620;SDS011;25309;48.686;9.170;2022-08-19T14:42:42;24.87;;;22.17;;
39620;SDS011;25309;48.686;9.170;2022-08-19T14:45:10;25.53;;;21.40;;